Flight Track Log - Related Links

Times and Time Zones

All times are in EDT time to prevent confusion due to time zone crossing. See the SKW6280 flight status page for this flight to view local times or setup timezone preferences in your user account.

Time Position Orientation Groundspeed Altitude Reporting Facility
EDT Latitude Longitude Course Direction KTS MPH feet Rate Location/Type
Wed 12:46:17 PM 32.7500 -117.2333 320° Northwest 155 178 1,800  Level Southern California TRACON
Wed 12:47:17 PM 32.7667 -117.2833 292° West 181 208 3,500 1,488 Climbing Southern California TRACON
Wed 12:48:18 PM 32.7936 -117.3275 306° West 180 207 4,800 1,333 Climbing Los Angeles Center
Wed 12:49:32 PM 32.8303 -117.3706 315° West 184 212 6,500 1,401 Climbing Los Angeles Center
Wed 12:50:35 PM 32.8822 -117.4358 313° West 193 222 8,000 720 Climbing Los Angeles Center
Wed 12:51:00 PM 33.0370 -117.4867 320° Northwest  Level FlightAware Approximate
Wed 12:51:37 PM 32.9261 -117.4936 312° West 226 260 8,000  Level Los Angeles Center
Wed 12:52:39 PM 32.9683 -117.5494 312° West 229 264 8,000  Level Los Angeles Center
Wed 12:53:41 PM 33.0097 -117.6064 311° West 228 262 8,000  Level Los Angeles Center
Wed 12:54:43 PM 33.0522 -117.6619 312° West 227 261 8,000  Level Los Angeles Center
Wed 12:55:45 PM 33.1158 -117.7106 327° Northwest 235 270 8,000  Level Los Angeles Center
Wed 12:56:47 PM 33.1728 -117.7411 336° Northwest 228 262 8,000  Level Los Angeles Center
Wed 12:57:49 PM 33.2311 -117.7717 336° Northwest 229 264 8,000  Level Los Angeles Center
Wed 12:58:51 PM 33.2894 -117.8008 337° Northwest 228 262 8,000  Level Los Angeles Center
Wed 12:59:53 PM 33.3486 -117.8317 336° Northwest 231 266 8,000  Level Los Angeles Center
Wed 01:00:24 PM 33.3833 -117.8500 336° Northwest 231 266 8,000  Level Southern California TRACON
Wed 01:01:24 PM 33.4500 -117.8833 337° Northwest 226 260 8,000  Level Southern California TRACON
Wed 01:01:58 PM 33.4764 -117.8964 338° Northwest 226 260 8,000  Level Los Angeles Center
Wed 01:03:00 PM 33.5344 -117.9250 338° Northwest 226 260 8,000 -145 Level Los Angeles Center
Wed 01:04:02 PM 33.5928 -117.9558 336° Northwest 229 264 7,700 -571 Descending Los Angeles Center
Wed 01:04:24 PM 33.6333 -117.9667 347° North 249 287 7,200 -512 Descending Southern California TRACON
Wed 01:05:24 PM 33.6833 -118.0000 331° Northwest 240 276 7,000 -100 Descending Southern California TRACON
Wed 01:06:24 PM 33.7500 -118.0333 337° Northwest 232 267 7,000  Level Southern California TRACON
Wed 01:07:24 PM 33.8000 -118.0667 331° Northwest 229 264 7,000 -450 Level Southern California TRACON
Wed 01:08:24 PM 33.8667 -118.0833 348° North 235 270 6,100 -1,553 Descending Southern California TRACON
Wed 01:10:14 PM 33.9525 -118.1536 326° Northwest 237 273 2,600 -1,179 Descending Los Angeles Center
Wed 01:11:17 PM 33.9528 -118.2336 270° West 206 237 2,700 95 Climbing Los Angeles Center

Login

Don't have an account? Register now (free) for customized features, flight alerts, and more!